createdAt,value
2023-04-02T00:00:34.677Z,96770.25
2023-04-02T00:06:40.324Z,96778.09
2023-04-02T00:12:15.463Z,96781.00
2023-04-02T00:17:36.175Z,96789.47
2023-04-02T00:22:57.020Z,96784.50
2023-04-02T00:28:22.106Z,96784.41
2023-04-02T00:33:42.786Z,96794.94
2023-04-02T00:39:08.444Z,96803.91
2023-04-02T00:44:33.031Z,96799.06
2023-04-02T00:49:59.407Z,96803.91
2023-04-02T00:55:37.423Z,96806.09
2023-04-02T01:00:59.027Z,96803.81
2023-04-02T01:06:19.725Z,96810.84
2023-04-02T01:11:52.685Z,96815.69
2023-04-02T01:17:32.664Z,96815.59
2023-04-02T01:23:02.578Z,96820.34
2023-04-02T01:28:46.152Z,96824.31
2023-04-02T01:34:12.940Z,96837.53
2023-04-02T01:39:52.077Z,96828.34
2023-04-02T01:45:15.149Z,96836.00
2023-04-02T01:50:39.894Z,96844.84
2023-04-02T01:56:01.820Z,96850.41
2023-04-02T02:01:24.061Z,96851.88
2023-04-02T02:06:47.172Z,96856.13
2023-04-02T02:12:07.774Z,96856.22
2023-04-02T02:17:31.113Z,96856.97
2023-04-02T02:22:51.980Z,96857.69
2023-04-02T02:28:26.148Z,96862.53
2023-04-02T02:33:50.381Z,96876.47
2023-04-02T02:39:25.992Z,96874.31
2023-04-02T02:44:47.976Z,96883.38
2023-04-02T02:50:13.985Z,96889.06
2023-04-02T02:55:36.923Z,96898.16
2023-04-02T03:01:09.619Z,96900.13
2023-04-02T03:06:33.291Z,96906.41
2023-04-02T03:12:02.272Z,96916.34
2023-04-02T03:17:37.137Z,96923.34
2023-04-02T03:23:21.717Z,96928.09
2023-04-02T03:28:48.048Z,96931.25
2023-04-02T03:34:18.002Z,96930.69
2023-04-02T03:39:39.846Z,96947.91
2023-04-02T03:45:10.742Z,96958.47
2023-04-02T03:50:36.191Z,96968.19
2023-04-02T03:55:56.881Z,96976.28
2023-04-02T04:01:31.840Z,96978.34
2023-04-02T04:06:53.041Z,96993.25
2023-04-02T04:12:22.061Z,97003.19
2023-04-02T04:18:04.364Z,97009.00
2023-04-02T04:23:37.578Z,97024.47
2023-04-02T04:29:17.046Z,97038.41
2023-04-02T04:34:46.737Z,97047.19
2023-04-02T04:40:21.274Z,97066.16
2023-04-02T04:45:51.913Z,97072.03
2023-04-02T04:51:28.055Z,97088.22
2023-04-02T04:56:51.931Z,97109.09
2023-04-02T05:02:29.750Z,97121.97
2023-04-02T05:07:53.387Z,97132.22
2023-04-02T05:13:29.944Z,97141.47
2023-04-02T05:19:11.297Z,97147.88
2023-04-02T05:24:54.563Z,97158.53
2023-04-02T05:30:28.665Z,97171.97
2023-04-02T05:36:12.443Z,97175.22
2023-04-02T05:41:46.153Z,97185.50
2023-04-02T05:47:20.804Z,97196.47
2023-04-02T05:53:10.084Z,97207.56
2023-04-02T05:58:44.735Z,97228.06
2023-04-02T06:04:50.828Z,97250.03
2023-04-02T06:11:00.537Z,97253.41
2023-04-02T06:16:25.522Z,97265.25
2023-04-02T06:21:47.226Z,97271.53
2023-04-02T06:34:01.093Z,97297.09
2023-04-02T06:47:00.420Z,97325.75
2023-04-02T06:52:32.356Z,97339.00
2023-04-02T06:57:55.937Z,97349.84
2023-04-02T07:03:26.074Z,97360.63
2023-04-02T07:08:49.666Z,97375.72
2023-04-02T07:14:14.548Z,97389.31
2023-04-02T07:19:35.769Z,97403.06
2023-04-02T07:24:57.094Z,97411.00
2023-04-02T07:30:18.528Z,97421.06
2023-04-02T07:35:40.620Z,97437.34
2023-04-02T07:41:06.387Z,97447.88
2023-04-02T07:47:41.799Z,97453.84
2023-04-02T07:53:04.171Z,97469.81
2023-04-02T08:30:58.293Z,97524.19
2023-04-02T08:42:39.721Z,97557.63
2023-04-02T08:48:03.614Z,97564.00
2023-04-02T08:53:25.867Z,97573.84
2023-04-02T08:58:50.864Z,97585.63
2023-04-02T09:04:17.027Z,97594.28
2023-04-02T09:09:38.478Z,97609.53
2023-04-02T09:15:07.375Z,97606.41
2023-04-02T09:33:09.867Z,97642.41
2023-04-02T10:34:56.482Z,97755.44
2023-04-02T11:11:45.735Z,97802.66
2023-04-02T11:17:06.606Z,97803.94
2023-04-02T11:35:46.205Z,97840.66
2023-04-02T11:41:08.822Z,97853.38
2023-04-02T11:46:30.812Z,97860.91
2023-04-02T11:52:02.177Z,97868.88
2023-04-02T11:57:37.942Z,97885.03
2023-04-02T12:03:37.294Z,97885.84
2023-04-02T12:40:07.863Z,97937.31
2023-04-02T12:45:30.852Z,97954.84
2023-04-02T13:16:17.417Z,97986.09
2023-04-02T13:21:38.972Z,97983.31
2023-04-02T13:27:03.722Z,97984.47
2023-04-02T13:32:25.312Z,97991.97
2023-04-02T13:37:46.301Z,97990.97
2023-04-02T13:43:08.022Z,98012.34
2023-04-02T13:48:29.193Z,98012.69
2023-04-02T13:53:52.610Z,98020.03
2023-04-02T13:59:14.103Z,98032.16
2023-04-02T14:04:39.405Z,98043.13
2023-04-02T14:10:15.953Z,98036.03
2023-04-02T14:16:32.036Z,98053.50
2023-04-02T14:21:59.272Z,98055.19
2023-04-02T14:27:51.476Z,98067.59
2023-04-02T14:33:32.718Z,98074.53
2023-04-02T14:39:09.212Z,98082.47
2023-04-02T15:09:44.331Z,98106.09
2023-04-02T15:40:43.457Z,98142.91
2023-04-02T15:46:32.000Z,98160.09
2023-04-02T15:52:12.426Z,98161.56
2023-04-02T15:57:46.569Z,98163.78
2023-04-02T16:04:34.278Z,98174.31
2023-04-02T16:10:30.239Z,98191.63
2023-04-02T16:16:11.556Z,98195.16
2023-04-02T16:21:43.322Z,98203.47
2023-04-02T16:27:23.129Z,98207.34
2023-04-02T16:32:56.938Z,98216.19
2023-04-02T16:38:44.968Z,98213.63
2023-04-02T16:44:24.357Z,98216.19
2023-04-02T16:49:54.236Z,98229.72
2023-04-02T16:55:55.080Z,98241.34
2023-04-02T17:14:28.523Z,98260.16
2023-04-02T17:19:53.479Z,98271.44
2023-04-02T17:25:20.681Z,98263.81
2023-04-02T17:30:44.120Z,98266.06
2023-04-02T17:36:23.822Z,98264.03
2023-04-02T17:41:49.810Z,98280.44
2023-04-02T17:47:20.817Z,98287.09
2023-04-02T17:53:05.188Z,98295.22
2023-04-02T17:59:00.095Z,98296.69
2023-04-02T18:04:30.252Z,98294.44
2023-04-02T18:09:54.722Z,98305.66
2023-04-02T18:15:25.120Z,98326.50
2023-04-02T18:21:06.932Z,98332.63
2023-04-02T18:26:48.105Z,98335.38
2023-04-02T18:32:46.205Z,98341.31
2023-04-02T18:39:18.202Z,98345.72
2023-04-02T18:45:39.950Z,98357.88
2023-04-02T18:51:22.545Z,98361.94
2023-04-02T18:56:47.062Z,98377.44
2023-04-02T19:02:27.759Z,98371.91
2023-04-02T19:07:58.654Z,98375.97
2023-04-02T19:13:49.129Z,98392.75
2023-04-02T19:27:27.483Z,98400.66
2023-04-02T19:33:07.879Z,98401.06
2023-04-02T19:38:47.569Z,98402.91
2023-04-02T19:44:11.772Z,98407.16
2023-04-02T19:50:07.104Z,98419.28
2023-04-02T19:56:04.065Z,98415.41
2023-04-02T20:01:25.772Z,98423.16
2023-04-02T20:06:47.021Z,98424.44
2023-04-02T20:12:08.223Z,98433.09
2023-04-02T20:17:29.262Z,98432.34
2023-04-02T20:22:51.079Z,98439.44
2023-04-02T20:28:12.122Z,98438.16
2023-04-02T20:33:33.531Z,98441.09
2023-04-02T20:38:55.162Z,98447.75
2023-04-02T20:44:22.768Z,98451.13
2023-04-02T20:49:58.450Z,98451.81
2023-04-02T20:55:19.910Z,98464.34
2023-04-02T21:00:41.743Z,98468.81
2023-04-02T21:06:06.908Z,98472.47
2023-04-02T21:11:47.529Z,98471.72
2023-04-02T21:17:12.864Z,98475.22
2023-04-02T21:22:34.519Z,98475.91
2023-04-02T21:27:56.067Z,98478.59
2023-04-02T21:33:17.613Z,98474.88
2023-04-02T21:38:43.360Z,98486.38
2023-04-02T21:44:06.805Z,98480.84
2023-04-02T21:49:29.947Z,98491.56
2023-04-02T21:54:51.161Z,98494.88
2023-04-02T22:00:13.569Z,98484.94
2023-04-02T22:05:34.962Z,98493.03
2023-04-02T22:10:56.859Z,98489.94
2023-04-02T22:16:23.388Z,98487.91
2023-04-02T22:21:45.188Z,98492.69
2023-04-02T22:27:06.521Z,98502.28
2023-04-02T22:32:28.132Z,98500.81
2023-04-02T22:37:49.609Z,98503.03
2023-04-02T22:43:11.059Z,98498.56
2023-04-02T22:48:32.964Z,98510.81
2023-04-02T22:53:54.621Z,98500.25
2023-04-02T22:59:16.295Z,98504.84
2023-04-02T23:04:37.450Z,98506.34
2023-04-02T23:09:58.946Z,98513.59
2023-04-02T23:15:20.559Z,98513.59
2023-04-02T23:20:41.764Z,98510.81
2023-04-02T23:26:04.349Z,98510.81
2023-04-02T23:31:25.656Z,98514.84
2023-04-02T23:36:47.134Z,98501.69
2023-04-02T23:42:09.630Z,98504.47
2023-04-02T23:47:31.549Z,98507.00
2023-04-02T23:52:52.815Z,98503.44
2023-04-02T23:58:14.355Z,98506.94
